Charlottesville, VA (22904)

1:24 AM EDT on September 05, 2015 (GMT -0400)
Charlottesville 2W | | Change Station
CLOSE
Current Station
Personal Weather Station
Location: Charlottesville, VA
Elevation: 866 ft
Nearby Weather Stations

Elev 866 ft 38.03 °N, 78.52 °W | Updated 0 second ago

Mostly Cloudy
Mostly Cloudy
70.6 °F
Feels Like 70.6 °F
N
0.0
Wind Variable Wind from North
Gusts 0.0 mph

Today
High -- | Low -- °F
--% Chance of Precip.
Yesterday
High -- | Low -- °F
Precip. -- in
6:46 AM 7:37 PM
Waning Gibbous, 52% visible
Pressure 30.12 in
Visibility 10.0 miles
Clouds Mostly Cloudy 4500 ft
Dew Point 68 °F
Humidity 90%
Rainfall 0.00 in
Snow Depth Not available.
UV 0 out of 12
Pollen 8.60 out of 12
Air Quality Not available.
Flu Activity Not available.
METAR KCHO 050453Z AUTO 00000KT 10SM BKN045 21/19 A3015 RMK AO2 SLP200 T02110189 403220200
Pressure 30.12 in
Visibility 10.0 miles
Clouds Mostly Cloudy 4500 ft
Dew Point 68 °F
Humidity 90%
Rainfall 0.00 in
Snow Depth Not available.
UV 0 out of 12
Pollen 8.60 out of 12
Air Quality Not available.
Flu Activity Not available.
METAR KCHO 050453Z AUTO 00000KT 10SM BKN045 21/19 A3015 RMK AO2 SLP200 T02110189 403220200

10-Day Weather Forecast

×

Almanac

Astronomy

Sep. 05, 2015 Rise Set
Actual Time
Civil Twilight
Nautical Twilight
Astronomical Twilight
Moon
Length of Visible Light
Length of Day
Tomorrow will be .
, % of the Moon is Illuminated

Today's Extremes

State Highs State Lows

Community

WunderPhotos

Upload Photos

1,852,427 photos uploaded!

WunderBlogs® & News

Nearby

Air Quality

  Air Quality AQ Index Pollutant
Not available.

Snow Depth

Station Depth Elevation

Earthquake Activity

City Distance Mag. Time & Date
Minimum magnitude displayed is 2.5.

Coastal Water Temperatures

Place Temperature

Stations

Nearby Weather Stations

Station Location Temp. Windchill Dew Point Humidity Wind Precip. Elev Updated Type